createdAt,value
2023-09-08T00:01:05.298Z,100822.41
2023-09-08T00:03:34.455Z,100908.03
2023-09-08T00:06:02.564Z,100897.28
2023-09-08T00:08:30.279Z,100897.56
2023-09-08T00:10:58.678Z,100888.25
2023-09-08T00:13:26.345Z,100897.53
2023-09-08T00:15:54.086Z,100884.03
2023-09-08T00:18:21.825Z,100888.50
2023-09-08T00:20:51.039Z,100890.34
2023-09-08T00:23:18.713Z,100881.03
2023-09-08T00:25:46.477Z,100885.66
2023-09-08T00:28:14.337Z,100897.28
2023-09-08T00:30:42.042Z,100854.94
2023-09-08T00:33:10.104Z,100895.84
2023-09-08T00:35:38.053Z,100874.91
2023-09-08T00:38:07.269Z,100891.97
2023-09-08T00:40:34.983Z,100889.53
2023-09-08T00:43:02.730Z,100794.44
2023-09-08T00:45:32.133Z,100894.69
2023-09-08T00:48:00.635Z,100878.34
2023-09-08T00:50:28.515Z,100891.69
2023-09-08T00:52:56.345Z,100886.09
2023-09-08T00:55:25.567Z,100882.78
2023-09-08T00:57:53.360Z,100881.91
2023-09-08T01:00:21.280Z,100868.63
2023-09-08T01:02:49.240Z,100882.22
2023-09-08T01:05:17.525Z,100884.06
2023-09-08T01:07:46.825Z,100880.34
2023-09-08T01:10:15.533Z,100880.34
2023-09-08T01:12:44.639Z,100881.94
2023-09-08T01:15:13.180Z,100882.50
2023-09-08T01:17:41.442Z,100880.22
2023-09-08T01:20:18.218Z,100868.00
2023-09-08T01:23:03.692Z,100885.94
2023-09-08T01:25:34.930Z,100884.06
2023-09-08T01:28:04.964Z,100859.44
2023-09-08T01:30:34.115Z,100866.88
2023-09-08T01:33:02.431Z,100883.78
2023-09-08T01:35:30.515Z,100879.59
2023-09-08T01:37:58.364Z,100879.91
2023-09-08T01:40:26.141Z,100814.06
2023-09-08T01:42:55.436Z,100877.34
2023-09-08T01:45:23.253Z,100858.53
2023-09-08T01:47:50.998Z,100876.00
2023-09-08T01:50:22.760Z,100863.56
2023-09-08T01:52:50.713Z,100874.28
2023-09-08T01:55:18.477Z,100759.91
2023-09-08T01:57:47.702Z,100861.69
2023-09-08T02:00:17.493Z,100863.56
2023-09-08T02:02:45.304Z,100864.56
2023-09-08T02:05:13.133Z,100868.28
2023-09-08T02:07:40.900Z,100856.53
2023-09-08T02:10:09.162Z,100858.25
2023-09-08T02:12:36.852Z,100856.25
2023-09-08T02:15:05.301Z,100859.69
2023-09-08T02:17:34.511Z,100860.69
2023-09-08T02:20:02.304Z,100861.84
2023-09-08T02:22:28.986Z,100866.84
2023-09-08T02:24:59.244Z,100869.75
2023-09-08T02:27:26.920Z,100851.41
2023-09-08T02:29:54.720Z,100857.84
2023-09-08T02:32:22.496Z,100852.94
2023-09-08T02:34:51.583Z,100859.16
2023-09-08T02:37:20.161Z,100809.06
2023-09-08T02:39:47.916Z,100869.75
2023-09-08T02:42:15.630Z,100866.19
2023-09-08T02:44:44.158Z,100860.44
2023-09-08T02:47:12.330Z,100864.03
2023-09-08T02:49:40.083Z,100856.53
2023-09-08T02:52:09.207Z,100864.16
2023-09-08T02:54:37.033Z,100856.97
2023-09-08T02:57:05.279Z,100867.44
2023-09-08T02:59:33.086Z,100844.34
2023-09-08T03:02:02.273Z,100842.75
2023-09-08T03:04:30.150Z,100860.09
2023-09-08T03:06:58.012Z,100873.44
2023-09-08T03:09:27.149Z,100875.16
2023-09-08T03:11:54.819Z,100869.72
2023-09-08T03:14:22.482Z,100867.72
2023-09-08T03:16:50.195Z,100863.84
2023-09-08T03:19:17.921Z,100870.88
2023-09-08T03:21:45.665Z,100864.28
2023-09-08T03:24:13.329Z,100852.69
2023-09-08T03:26:42.383Z,100861.25
2023-09-08T03:29:10.287Z,100849.94
2023-09-08T03:31:38.147Z,100858.69
2023-09-08T03:34:06.165Z,100771.41
2023-09-08T03:36:36.899Z,100840.19
2023-09-08T03:39:04.812Z,100845.66
2023-09-08T03:41:32.553Z,100846.22
2023-09-08T03:44:01.764Z,100840.19
2023-09-08T03:46:29.557Z,100842.91
2023-09-08T03:49:02.396Z,100845.50
2023-09-08T03:51:30.163Z,100846.06
2023-09-08T03:53:58.163Z,100834.88
2023-09-08T03:56:26.103Z,100841.06
2023-09-08T03:58:53.985Z,100805.81
2023-09-08T04:01:23.106Z,100843.19
2023-09-08T04:03:50.874Z,100812.81
2023-09-08T04:06:18.626Z,100841.34
2023-09-08T04:08:46.446Z,100845.50
2023-09-08T04:11:14.194Z,100847.34
2023-09-08T04:13:42.020Z,100754.75
2023-09-08T04:16:10.579Z,100715.22
2023-09-08T04:18:39.793Z,100844.50
2023-09-08T04:21:08.807Z,100837.63
2023-09-08T04:23:36.775Z,100835.88
2023-09-08T04:26:04.893Z,100845.50
2023-09-08T04:28:32.603Z,100836.31
2023-09-08T04:31:00.432Z,100842.19
2023-09-08T04:33:29.947Z,100842.75
2023-09-08T04:35:59.112Z,100786.31
2023-09-08T04:38:26.809Z,100810.06
2023-09-08T04:40:54.607Z,100848.34
2023-09-08T04:43:22.219Z,100842.91
2023-09-08T04:45:49.956Z,100847.38
2023-09-08T04:48:17.636Z,100848.06
2023-09-08T04:50:45.328Z,100842.31
2023-09-08T04:53:14.433Z,100845.34
2023-09-08T04:55:42.282Z,100848.06
2023-09-08T04:58:09.926Z,100847.66
2023-09-08T05:00:39.874Z,100849.22
2023-09-08T05:03:07.978Z,100830.72
2023-09-08T05:05:35.754Z,100857.09
2023-09-08T05:08:03.570Z,100853.34
2023-09-08T05:10:32.628Z,100850.50
2023-09-08T05:13:00.426Z,100639.50
2023-09-08T05:15:28.138Z,100844.78
2023-09-08T05:17:55.892Z,100839.47
2023-09-08T05:20:23.659Z,100851.50
2023-09-08T05:22:51.397Z,100850.78
2023-09-08T05:25:19.408Z,100850.38
2023-09-08T05:27:50.149Z,100841.19
2023-09-08T05:30:17.895Z,100840.91
2023-09-08T05:32:45.671Z,100847.38
2023-09-08T05:35:13.457Z,100845.34
2023-09-08T05:37:41.163Z,100848.34
2023-09-08T05:40:09.923Z,100848.63
2023-09-08T05:42:37.550Z,100846.06
2023-09-08T05:45:07.888Z,100840.31
2023-09-08T05:47:37.058Z,100845.91
2023-09-08T05:50:05.025Z,100828.16
2023-09-08T05:52:34.332Z,100844.47
2023-09-08T05:55:04.090Z,100828.72
2023-09-08T05:57:32.013Z,100843.38
2023-09-08T05:59:59.692Z,100854.25
2023-09-08T06:02:28.857Z,100854.25
2023-09-08T06:04:57.586Z,100846.50
2023-09-08T06:07:25.349Z,100848.16
2023-09-08T06:09:53.155Z,100835.53
2023-09-08T06:12:20.952Z,100849.59
2023-09-08T06:14:48.944Z,100846.50
2023-09-08T06:17:16.784Z,100846.41
2023-09-08T06:19:45.955Z,100844.31
2023-09-08T06:22:13.665Z,100842.63
2023-09-08T06:24:41.507Z,100849.66
2023-09-08T06:27:09.334Z,100846.06
2023-09-08T06:29:37.148Z,100853.44
2023-09-08T06:32:05.420Z,100849.44
2023-09-08T06:34:33.250Z,100855.75
2023-09-08T06:37:02.393Z,100863.59
2023-09-08T06:39:30.358Z,100859.44
2023-09-08T06:41:58.025Z,100858.03
2023-09-08T06:44:25.797Z,100862.75
2023-09-08T06:46:53.635Z,100886.28
2023-09-08T06:49:21.336Z,100874.19
2023-09-08T06:51:50.081Z,100861.78
2023-09-08T06:54:19.840Z,100860.41
2023-09-08T06:56:47.588Z,100870.53
2023-09-08T06:59:15.281Z,100768.25
2023-09-08T07:01:43.253Z,100867.72
2023-09-08T07:04:12.086Z,100859.84
2023-09-08T07:06:42.960Z,100714.16
2023-09-08T07:09:11.851Z,100827.44
2023-09-08T07:11:41.179Z,100869.44
2023-09-08T07:14:09.326Z,100873.00
2023-09-08T07:16:37.315Z,100791.41
2023-09-08T07:19:05.790Z,100874.84
2023-09-08T07:21:33.563Z,100869.25
2023-09-08T07:24:01.749Z,100862.47
2023-09-08T07:26:29.547Z,100865.22
2023-09-08T07:28:58.655Z,100868.72
2023-09-08T07:31:26.475Z,100865.44
2023-09-08T07:33:54.464Z,100878.50
2023-09-08T07:36:22.235Z,100867.75
2023-09-08T07:38:50.052Z,100877.03
2023-09-08T07:41:17.822Z,100849.06
2023-09-08T07:43:46.864Z,100861.59
2023-09-08T07:46:16.372Z,100875.06
2023-09-08T07:48:44.179Z,100880.47
2023-09-08T07:51:12.021Z,100879.75
2023-09-08T07:53:39.801Z,100878.56
2023-09-08T07:56:07.675Z,100887.97
2023-09-08T07:58:35.748Z,100885.38
2023-09-08T08:01:03.769Z,100847.66
2023-09-08T08:03:33.027Z,100881.94
2023-09-08T08:06:00.784Z,100880.13
2023-09-08T08:08:28.801Z,100882.94
2023-09-08T08:10:56.756Z,100887.25
2023-09-08T08:13:24.475Z,100888.09
2023-09-08T08:15:52.210Z,100878.31
2023-09-08T08:18:20.153Z,100878.69
2023-09-08T08:20:49.602Z,100881.28
2023-09-08T08:23:17.394Z,100876.56
2023-09-08T08:25:45.159Z,100883.44
2023-09-08T08:28:12.929Z,100882.00
2023-09-08T08:30:40.588Z,100884.88
2023-09-08T08:33:08.512Z,100881.69
2023-09-08T08:35:36.371Z,100884.72
2023-09-08T08:38:05.849Z,100875.88
2023-09-08T08:40:35.175Z,100880.63
2023-09-08T08:43:03.078Z,100880.94
2023-09-08T08:45:34.664Z,100882.69
2023-09-08T08:48:03.833Z,100872.88
2023-09-08T08:50:33.422Z,100884.44
2023-09-08T08:53:01.211Z,100879.28
2023-09-08T08:55:32.230Z,100878.03
2023-09-08T08:58:05.120Z,100886.94
2023-09-08T09:00:35.890Z,100872.59
2023-09-08T09:03:15.031Z,100699.25
2023-09-08T09:05:47.595Z,100875.63
2023-09-08T09:08:17.312Z,100870.97
2023-09-08T09:10:46.444Z,100879.34
2023-09-08T09:13:14.201Z,100821.00
2023-09-08T09:15:42.004Z,100802.63
2023-09-08T09:18:10.397Z,100875.25
2023-09-08T09:20:38.235Z,100879.13
2023-09-08T09:23:06.279Z,100876.16
2023-09-08T09:25:34.414Z,100877.50
2023-09-08T09:28:05.071Z,100875.75
2023-09-08T09:30:49.387Z,100790.50
2023-09-08T09:33:17.957Z,100878.72
2023-09-08T09:35:48.525Z,100858.69
2023-09-08T09:38:16.638Z,100869.47
2023-09-08T09:40:44.473Z,100861.56
2023-09-08T09:43:14.211Z,100855.13
2023-09-08T09:45:43.097Z,100869.59
2023-09-08T09:48:12.442Z,100865.47
2023-09-08T09:50:44.226Z,100867.25
2023-09-08T09:53:13.885Z,100863.63
2023-09-08T09:55:42.705Z,100873.50
2023-09-08T09:58:11.933Z,100864.63
2023-09-08T10:00:42.294Z,100864.66
2023-09-08T10:03:10.708Z,100864.25
2023-09-08T10:05:39.212Z,100865.16
2023-09-08T10:08:07.619Z,100859.91
2023-09-08T10:10:36.522Z,100859.59
2023-09-08T10:13:07.606Z,100871.25
2023-09-08T10:15:35.932Z,100868.06
2023-09-08T10:18:06.888Z,100868.56
2023-09-08T10:20:36.731Z,100864.72
2023-09-08T10:23:10.222Z,100872.59
2023-09-08T10:25:44.643Z,100825.22
2023-09-08T10:28:12.563Z,100867.41
2023-09-08T10:30:41.114Z,100860.97
2023-09-08T10:33:11.366Z,100865.84
2023-09-08T10:35:39.534Z,100814.38
2023-09-08T10:38:27.252Z,100863.72
2023-09-08T10:40:55.632Z,100862.66
2023-09-08T10:43:23.355Z,100863.75
2023-09-08T10:45:52.499Z,100859.00
2023-09-08T10:48:21.687Z,100859.16
2023-09-08T10:50:49.581Z,100861.19
2023-09-08T10:53:19.036Z,100857.75
2023-09-08T10:56:06.442Z,100864.44
2023-09-08T10:58:39.931Z,100854.38
2023-09-08T11:01:08.756Z,100849.00
2023-09-08T11:03:50.381Z,100858.91
2023-09-08T11:06:20.085Z,100861.84
2023-09-08T11:08:48.539Z,100860.72
2023-09-08T11:11:18.631Z,100854.97
2023-09-08T11:13:47.916Z,100855.94
2023-09-08T11:16:16.213Z,100866.22
2023-09-08T11:18:44.599Z,100870.19
2023-09-08T11:21:13.808Z,100888.06
2023-09-08T11:23:41.680Z,100865.59
2023-09-08T11:26:10.216Z,100859.38
2023-09-08T11:28:39.257Z,100856.03
2023-09-08T11:31:07.371Z,100853.09
2023-09-08T11:33:40.480Z,100856.03
2023-09-08T11:36:18.068Z,100859.22
2023-09-08T11:38:46.623Z,100857.13
2023-09-08T11:41:14.792Z,100860.03
2023-09-08T11:43:42.771Z,100855.69
2023-09-08T11:46:11.907Z,100852.31
2023-09-08T11:48:40.872Z,100838.94
2023-09-08T11:51:09.190Z,100840.94
2023-09-08T11:53:39.470Z,100845.72
2023-09-08T11:56:07.919Z,100848.53
2023-09-08T11:58:36.210Z,100760.88
2023-09-08T12:01:05.920Z,100830.72
2023-09-08T12:03:33.790Z,100840.81
2023-09-08T12:06:03.571Z,100826.94
2023-09-08T12:08:31.478Z,100846.06
2023-09-08T12:11:00.887Z,100839.28
2023-09-08T12:13:28.637Z,100707.28
2023-09-08T12:15:56.348Z,100708.38
2023-09-08T12:18:39.826Z,100833.72
2023-09-08T12:21:07.853Z,100842.72
2023-09-08T12:23:35.539Z,100838.22
2023-09-08T12:26:04.626Z,100842.78
2023-09-08T12:28:33.064Z,100833.53
2023-09-08T12:31:01.004Z,100825.00
2023-09-08T12:33:29.150Z,100729.66
2023-09-08T12:35:56.816Z,100823.81
2023-09-08T12:38:24.709Z,100720.66
2023-09-08T12:40:52.405Z,100827.19
2023-09-08T12:43:27.940Z,100839.28
2023-09-08T12:45:57.484Z,100759.66
2023-09-08T12:48:25.634Z,100720.25
2023-09-08T12:50:53.613Z,100819.34
2023-09-08T12:53:21.745Z,100822.38
2023-09-08T12:55:49.917Z,100819.66
2023-09-08T12:58:18.025Z,100816.44
2023-09-08T13:00:47.443Z,100822.09
2023-09-08T13:03:15.197Z,100809.69
2023-09-08T13:05:43.272Z,100817.69
2023-09-08T13:08:12.315Z,100809.63
2023-09-08T13:10:40.206Z,100806.56
2023-09-08T13:13:08.127Z,100804.47
2023-09-08T13:15:35.891Z,100800.34
2023-09-08T13:18:05.370Z,100724.03
2023-09-08T13:20:33.175Z,100753.25
2023-09-08T13:23:01.005Z,100803.69
2023-09-08T13:25:29.010Z,100812.56
2023-09-08T13:27:56.816Z,100803.97
2023-09-08T13:30:27.708Z,100798.72
2023-09-08T13:32:56.993Z,100793.81
2023-09-08T13:35:26.198Z,100796.84
2023-09-08T13:37:53.925Z,100784.66
2023-09-08T13:40:22.030Z,100793.84
2023-09-08T13:42:50.151Z,100794.03
2023-09-08T13:45:18.092Z,100736.91
2023-09-08T13:47:46.301Z,100774.53
2023-09-08T13:50:14.686Z,100783.44
2023-09-08T13:52:47.153Z,100780.75
2023-09-08T13:57:48.781Z,100734.84
2023-09-08T14:00:18.366Z,100782.25
2023-09-08T14:02:51.678Z,100778.75
2023-09-08T14:05:27.656Z,100774.69
2023-09-08T14:08:07.986Z,100748.50
2023-09-08T14:10:53.136Z,100789.63
2023-09-08T14:13:26.355Z,100789.66
2023-09-08T14:15:54.179Z,100708.84
2023-09-08T14:18:22.027Z,100779.84
2023-09-08T14:20:49.747Z,100775.88
2023-09-08T14:23:18.896Z,100777.94
2023-09-08T14:25:46.696Z,100695.84
2023-09-08T14:28:14.477Z,100770.13
2023-09-08T14:30:42.645Z,100801.50
2023-09-08T14:33:10.493Z,100675.09
2023-09-08T14:35:43.059Z,100719.19
2023-09-08T14:38:11.053Z,100773.88
2023-09-08T14:40:40.158Z,100738.53
2023-09-08T14:43:07.882Z,100768.50
2023-09-08T14:45:35.569Z,100758.84
2023-09-08T14:48:03.490Z,100758.28
2023-09-08T14:50:31.227Z,100752.94
2023-09-08T14:52:58.940Z,100769.50
2023-09-08T14:55:26.720Z,100752.66
2023-09-08T14:57:56.472Z,100757.34
2023-09-08T15:00:24.276Z,100749.28
2023-09-08T15:02:52.225Z,100757.84
2023-09-08T15:05:20.296Z,100759.97
2023-09-08T15:07:48.410Z,100676.00
2023-09-08T15:10:16.237Z,100756.44
2023-09-08T15:12:44.417Z,100735.72
2023-09-08T15:15:13.644Z,100752.47
2023-09-08T15:17:41.461Z,100755.94
2023-09-08T15:20:10.430Z,100717.00
2023-09-08T15:22:38.309Z,100745.84
2023-09-08T15:25:06.702Z,100655.94
2023-09-08T15:27:34.492Z,100744.88
2023-09-08T15:30:02.379Z,100681.84
2023-09-08T15:32:31.537Z,100741.22
2023-09-08T15:34:59.356Z,100589.78
2023-09-08T15:37:27.140Z,100741.34
2023-09-08T15:39:54.866Z,100730.53
2023-09-08T15:42:22.837Z,100734.91
2023-09-08T15:44:50.574Z,100735.63
2023-09-08T15:47:20.135Z,100729.72
2023-09-08T15:49:49.320Z,100726.06
2023-09-08T15:52:17.304Z,100732.22
2023-09-08T15:54:45.236Z,100735.75
2023-09-08T15:57:13.178Z,100723.88
2023-09-08T15:59:41.223Z,100728.75
2023-09-08T16:02:09.071Z,100731.13
2023-09-08T16:04:36.899Z,100727.16
2023-09-08T16:07:06.507Z,100726.13
2023-09-08T16:09:34.236Z,100731.91
2023-09-08T16:12:02.006Z,100630.56
2023-09-08T16:14:29.967Z,100729.06
2023-09-08T16:16:57.707Z,100727.38
2023-09-08T16:19:25.392Z,100727.25
2023-09-08T16:21:53.183Z,100722.38
2023-09-08T16:24:22.259Z,100680.00
2023-09-08T16:26:50.106Z,100726.25
2023-09-08T16:29:18.103Z,100698.03
2023-09-08T16:31:45.854Z,100723.16
2023-09-08T16:34:13.516Z,100715.34
2023-09-08T16:36:41.208Z,100723.66
2023-09-08T16:39:08.920Z,100720.09
2023-09-08T16:41:38.025Z,100719.34
2023-09-08T16:44:06.020Z,100721.28
2023-09-08T16:46:33.976Z,100718.88
2023-09-08T16:49:01.690Z,100718.75
2023-09-08T16:51:30.429Z,100607.56
2023-09-08T16:54:00.557Z,100731.19
2023-09-08T16:56:28.578Z,100730.56
2023-09-08T16:58:57.642Z,100723.25
2023-09-08T17:01:25.384Z,100724.63
2023-09-08T17:03:53.255Z,100721.19
2023-09-08T17:06:21.302Z,100706.78
2023-09-08T17:08:49.040Z,100634.88
2023-09-08T17:11:19.471Z,100717.94
2023-09-08T17:13:47.228Z,100671.16
2023-09-08T17:16:16.323Z,100716.72
2023-09-08T17:18:44.222Z,100718.44
2023-09-08T17:21:12.037Z,100717.19
2023-09-08T17:23:40.302Z,100664.34
2023-09-08T17:26:09.216Z,100717.56
2023-09-08T17:28:36.900Z,100721.53
2023-09-08T17:31:05.843Z,100721.50
2023-09-08T17:33:35.426Z,100717.13
2023-09-08T17:36:04.726Z,100679.50
2023-09-08T17:38:33.173Z,100674.38
2023-09-08T17:41:02.721Z,100625.78
2023-09-08T17:43:30.705Z,100723.34
2023-09-08T17:45:59.796Z,100721.09
2023-09-08T17:48:28.633Z,100675.34
2023-09-08T17:50:57.866Z,100673.53
2023-09-08T17:53:25.688Z,100729.38
2023-09-08T17:55:53.388Z,100733.72
2023-09-08T17:58:21.110Z,100737.59
2023-09-08T18:00:49.421Z,100741.72
2023-09-08T18:03:19.098Z,100737.09
2023-09-08T18:05:48.348Z,100740.03
2023-09-08T18:08:17.498Z,100679.94
2023-09-08T18:10:47.278Z,100724.47
2023-09-08T18:13:15.122Z,100743.09
2023-09-08T18:15:43.028Z,100722.56
2023-09-08T18:18:10.908Z,100742.41
2023-09-08T18:20:38.712Z,100741.75
2023-09-08T18:23:06.496Z,100740.44
2023-09-08T18:25:35.672Z,100707.06
2023-09-08T18:28:03.370Z,100738.59
2023-09-08T18:30:31.093Z,100746.72
2023-09-08T18:32:58.757Z,100745.28
2023-09-08T18:35:27.526Z,100755.81
2023-09-08T18:37:55.225Z,100733.19
2023-09-08T18:40:22.930Z,100743.91
2023-09-08T18:42:52.149Z,100747.44
2023-09-08T18:45:20.117Z,100670.72
2023-09-08T18:47:47.887Z,100744.75
2023-09-08T18:50:15.606Z,100743.78
2023-09-08T18:52:43.803Z,100740.66
2023-09-08T18:55:11.530Z,100680.88
2023-09-08T18:57:39.284Z,100649.00
2023-09-08T19:00:10.006Z,100753.19
2023-09-08T19:02:37.960Z,100758.34
2023-09-08T19:05:07.103Z,100757.56
2023-09-08T19:07:34.899Z,100756.88
2023-09-08T19:10:04.218Z,100756.06
2023-09-08T19:12:32.033Z,100756.16
2023-09-08T19:14:59.820Z,100763.56
2023-09-08T19:17:29.038Z,100758.22
2023-09-08T19:19:56.779Z,100761.84
2023-09-08T19:22:24.668Z,100757.56
2023-09-08T19:24:53.776Z,100769.75
2023-09-08T19:27:21.540Z,100739.28
2023-09-08T19:29:50.996Z,100764.16
2023-09-08T19:32:18.892Z,100746.53
2023-09-08T19:34:47.946Z,100753.56
2023-09-08T19:37:16.077Z,100760.25
2023-09-08T19:39:44.009Z,100762.81
2023-09-08T19:42:11.688Z,100762.31
2023-09-08T19:44:39.467Z,100758.56
2023-09-08T19:47:07.273Z,100760.44
2023-09-08T19:49:35.068Z,100767.63
2023-09-08T19:52:04.297Z,100755.66
2023-09-08T19:54:31.967Z,100659.72
2023-09-08T19:56:59.617Z,100758.69
2023-09-08T19:59:27.317Z,100760.75
2023-09-08T20:01:55.118Z,100754.59
2023-09-08T20:04:22.931Z,100764.50
2023-09-08T20:06:52.394Z,100761.78
2023-09-08T20:09:21.538Z,100755.59
2023-09-08T20:11:49.280Z,100755.41
2023-09-08T20:14:17.019Z,100733.97
2023-09-08T20:16:44.779Z,100748.75
2023-09-08T20:19:12.769Z,100752.66
2023-09-08T20:21:40.465Z,100758.31
2023-09-08T20:24:08.704Z,100752.81
2023-09-08T20:26:38.030Z,100755.38
2023-09-08T20:29:05.851Z,100760.31
2023-09-08T20:31:33.639Z,100754.84
2023-09-08T20:34:01.336Z,100756.88
2023-09-08T20:36:29.190Z,100769.88
2023-09-08T20:38:56.876Z,100758.94
2023-09-08T20:41:24.638Z,100766.09
2023-09-08T20:43:53.671Z,100763.97
2023-09-08T20:46:21.440Z,100763.97
2023-09-08T20:48:49.116Z,100758.31
2023-09-08T20:51:20.788Z,100761.81
2023-09-08T20:53:48.426Z,100768.16
2023-09-08T20:56:16.259Z,100766.25
2023-09-08T20:58:44.878Z,100768.63
2023-09-08T21:01:13.995Z,100767.28
2023-09-08T21:03:41.717Z,100773.06
2023-09-08T21:06:11.432Z,100767.31
2023-09-08T21:08:39.185Z,100751.09
2023-09-08T21:11:06.915Z,100761.66
2023-09-08T21:13:35.518Z,100762.53
2023-09-08T21:16:03.464Z,100776.94
2023-09-08T21:18:32.578Z,100760.81
2023-09-08T21:21:00.809Z,100758.22
2023-09-08T21:23:29.174Z,100763.53
2023-09-08T21:25:56.898Z,100759.25
2023-09-08T21:28:24.648Z,100760.25
2023-09-08T21:30:52.326Z,100748.09
2023-09-08T21:33:21.730Z,100752.06
2023-09-08T21:35:50.911Z,100751.69
2023-09-08T21:38:17.616Z,100729.94
2023-09-08T21:40:45.333Z,100754.69
2023-09-08T21:43:12.995Z,100756.41
2023-09-08T21:45:40.738Z,100754.63
2023-09-08T21:48:09.048Z,100758.69
2023-09-08T21:50:36.747Z,100753.25
2023-09-08T21:53:05.937Z,100752.81
2023-09-08T21:55:33.697Z,100757.63
2023-09-08T21:58:01.458Z,100755.03
2023-09-08T22:00:34.331Z,100770.56
2023-09-08T22:03:02.288Z,100755.97
2023-09-08T22:05:30.199Z,100753.56
2023-09-08T22:07:57.919Z,100752.53
2023-09-08T22:10:27.392Z,100737.59
2023-09-08T22:12:55.113Z,100760.91
2023-09-08T22:15:22.831Z,100751.84
2023-09-08T22:17:51.575Z,100756.59
2023-09-08T22:20:19.589Z,100762.38
2023-09-08T22:22:47.418Z,100758.47
2023-09-08T22:25:15.229Z,100759.44
2023-09-08T22:27:44.334Z,100732.13
2023-09-08T22:30:12.935Z,100748.00
2023-09-08T22:32:40.840Z,100756.31
2023-09-08T22:35:09.050Z,100698.66
2023-09-08T22:37:36.915Z,100746.13
2023-09-08T22:40:09.936Z,100751.47
2023-09-08T22:42:37.947Z,100751.00
2023-09-08T22:45:08.179Z,100747.34
2023-09-08T22:47:35.937Z,100748.50
2023-09-08T22:50:10.670Z,100747.44
2023-09-08T22:52:41.110Z,100745.09
2023-09-08T22:55:23.339Z,100676.91
2023-09-08T22:57:52.478Z,100720.81
2023-09-08T23:00:21.793Z,100743.13
2023-09-08T23:02:49.620Z,100747.19
2023-09-08T23:05:17.611Z,100732.59
2023-09-08T23:07:45.562Z,100711.16
2023-09-08T23:10:13.447Z,100742.66
2023-09-08T23:12:41.195Z,100741.28
2023-09-08T23:15:10.996Z,100736.13
2023-09-08T23:17:40.516Z,100700.75
2023-09-08T23:20:09.165Z,100740.72
2023-09-08T23:22:37.732Z,100734.09
2023-09-08T23:25:06.787Z,100740.00
2023-09-08T23:27:34.633Z,100740.16
2023-09-08T23:30:03.275Z,100712.97
2023-09-08T23:32:31.025Z,100734.19
2023-09-08T23:35:00.859Z,100728.91
2023-09-08T23:37:28.711Z,100736.84
2023-09-08T23:39:56.493Z,100732.63
2023-09-08T23:42:24.251Z,100729.09
2023-09-08T23:44:52.116Z,100726.94
2023-09-08T23:47:19.942Z,100666.31
2023-09-08T23:49:47.691Z,100724.81
2023-09-08T23:52:16.775Z,100723.75
2023-09-08T23:54:44.467Z,100720.50
2023-09-08T23:57:12.274Z,100720.22
2023-09-08T23:59:40.000Z,100722.22
